Sagar Sampada — VWXS — position and weather

sailwx.info

Track history (hours):
 
Tides and Currents Weather Stations Pressure Air Temp Water Temp Dewpoint Dewpoint Depression Visibility Wind Speed Wind Dir Waves Ship Positions

Oceanographic research ship Sagar Sampada (India)

Detailed information on ship capabilities available from University of Delaware's Ocean Information Center.

Last reported at 2017-Jun-25 03:09 UTC. Time now 2017-Jun-27 00:17 UTC.
Position N 17°42' E 083°18'.

Type: Ship (hazmat cat A). MMSI: 419323000.

Wind from 260 at 2 knots

Barometer 998.7 mb
Air temperature 28.7 ° C

Date/timePositionNaut miles runAvg speedWind from/ knotsBaromVisibWave heightAir tempDewpointWater temp
2017-Jun-25 03:09N 17°42' E 083°18'0 0.0 260 / 2998.7 28.7
2017-Jun-25 00:09N 17°42' E 083°18'0 0.0 270 / 6997.8 27.3
2017-Jun-24 21:09N 17°42' E 083°18'0 0.0 280 / 4997.6 28.0
2017-Jun-24 18:09N 17°42' E 083°18'0 0.0 260 / 2998.7 28.1
2017-Jun-24 15:09N 17°42' E 083°18'0 0.0 090 / 2999.5 27.8
2017-Jun-24 12:09N 17°42' E 083°18'0 0.0 200 / 2997.0 32.3
2017-Jun-24 09:09N 17°42' E 083°18'0 0.0 220 / 4997.3 33.1
2017-Jun-24 06:09N 17°42' E 083°18'0 0.0 200 / 2998.8 34.2
2017-Jun-24 03:09N 17°42' E 083°18'0 0.0 280 / 4999.4 31.0
2017-Jun-24 00:09N 17°42' E 083°18'0 0.0 290 / 2998.4 29.6
2017-Jun-23 21:09N 17°42' E 083°18'0 0.0 260 / 4998.9 30.7
2017-Jun-23 18:09N 17°42' E 083°18'0 0.0 270 / 41000.7 31.2
2017-Jun-23 12:09N 17°42' E 083°18'49 1.2 120 / 2998.5 32.7
2017-Jun-21 18:09N 18°00' E 084°06'6 2.0 230 / 161002.9 29.7
2017-Jun-21 15:09N 17°54' E 084°06'21 7.0 220 / 121002.5 29.8
2017-Jun-21 12:09N 17°42' E 083°48'21 7.1 200 / 81000.0 30.3
2017-Jun-21 09:09N 17°24' E 083°36'17 5.5 220 / 101001.8 30.1
2017-Jun-21 06:09N 17°12' E 083°24'0 0.0 240 / 211002.4 29.0
2017-Jun-21 03:09N 17°12' E 083°24'13 2.2 250 / 141003.6 30.1
2017-Jun-20 21:09N 17°18' E 083°12'8 2.8 270 / 121001.6 29.1
2017-Jun-20 18:09N 17°24' E 083°06'25 2.7 060 / 61002.0 29.0
2017-Jun-20 09:09N 17°00' E 083°12'6 1.9 240 / 161000.6 30.1
2017-Jun-20 06:09N 17°00' E 083°18'26 2.9 230 / 231002.0 30.2
2017-Jun-19 21:09N 16°48' E 082°54'21 7.1 220 / 101001.6 29.7
2017-Jun-19 18:09N 16°30' E 082°42'156 3.7 220 / 171003.2 30.3
2017-Jun-18 00:09N 15°00' E 080°30'12 4.0 270 / 161003.6 29.8
2017-Jun-17 21:09N 14°48' E 080°30'18 6.0 250 / 121003.3 27.0
2017-Jun-17 18:09N 14°30' E 080°30'24 8.0 180 / 101004.9 30.6
2017-Jun-17 15:09N 14°06' E 080°30'6 2.0 160 / 121004.3 30.6
2017-Jun-17 12:09N 14°00' E 080°30'36 4.1 180 / 171001.8 30.7
2017-Jun-17 03:09N 13°24' E 080°36'8 2.8 240 / 121006.8 29.5
2017-Jun-17 00:09N 13°18' E 080°42'0 0.0 240 / 171005.6 29.2
2017-Jun-16 21:09N 13°18' E 080°42'19 3.2 210 / 61005.6 29.5
2017-Jun-16 15:09N 13°00' E 080°48'6 1.9 270 / 81007.1 30.5
2017-Jun-16 12:09N 13°00' E 080°42'61 5.1 170 / 141004.0 30.3
2017-Jun-16 00:09N 12°06' E 080°12'8 1.4 210 / 171005.1 29.1
2017-Jun-15 18:09N 12°00' E 080°06'21 7.2 190 / 191006.2 29.5
2017-Jun-15 15:09N 11°42' E 079°54'24 8.0 180 / 121005.1 28.7
2017-Jun-15 12:09N 11°18' E 079°54'25 7.2 170 / 101003.7 29.9
2017-Jun-15 08:39N 11°00' E 080°12'   200 / 171005.1 29.4
Track history (hours):
 
Tides and Currents Weather Stations Pressure Air Temp Water Temp Dewpoint Dewpoint Depression Visibility Wind Speed Wind Dir Waves Ship Positions

Oceanographic research ship Sagar Sampada (India)

Detailed information on ship capabilities available from University of Delaware's Ocean Information Center.

Last reported at 2017-Jun-25 03:09 UTC. Time now 2017-Jun-27 00:17 UTC.
Position N 17°42' E 083°18'.

Type: Ship (hazmat cat A). MMSI: 419323000.

Wind from 260 at 2 knots

Barometer 998.7 mb
Air temperature 28.7 ° C

Date/timePositionNaut miles runAvg speedWind from/ knotsBaromVisibWave heightAir tempDewpointWater temp
2017-Jun-25 03:09N 17°42' E 083°18'0 0.0 260 / 2998.7 28.7
2017-Jun-25 00:09N 17°42' E 083°18'0 0.0 270 / 6997.8 27.3
2017-Jun-24 21:09N 17°42' E 083°18'0 0.0 280 / 4997.6 28.0
2017-Jun-24 18:09N 17°42' E 083°18'0 0.0 260 / 2998.7 28.1
2017-Jun-24 15:09N 17°42' E 083°18'0 0.0 090 / 2999.5 27.8
2017-Jun-24 12:09N 17°42' E 083°18'0 0.0 200 / 2997.0 32.3
2017-Jun-24 09:09N 17°42' E 083°18'0 0.0 220 / 4997.3 33.1
2017-Jun-24 06:09N 17°42' E 083°18'0 0.0 200 / 2998.8 34.2
2017-Jun-24 03:09N 17°42' E 083°18'0 0.0 280 / 4999.4 31.0
2017-Jun-24 00:09N 17°42' E 083°18'0 0.0 290 / 2998.4 29.6
2017-Jun-23 21:09N 17°42' E 083°18'0 0.0 260 / 4998.9 30.7
2017-Jun-23 18:09N 17°42' E 083°18'0 0.0 270 / 41000.7 31.2
2017-Jun-23 12:09N 17°42' E 083°18'49 1.2 120 / 2998.5 32.7
2017-Jun-21 18:09N 18°00' E 084°06'6 2.0 230 / 161002.9 29.7
2017-Jun-21 15:09N 17°54' E 084°06'21 7.0 220 / 121002.5 29.8
2017-Jun-21 12:09N 17°42' E 083°48'21 7.1 200 / 81000.0 30.3
2017-Jun-21 09:09N 17°24' E 083°36'17 5.5 220 / 101001.8 30.1
2017-Jun-21 06:09N 17°12' E 083°24'0 0.0 240 / 211002.4 29.0
2017-Jun-21 03:09N 17°12' E 083°24'13 2.2 250 / 141003.6 30.1
2017-Jun-20 21:09N 17°18' E 083°12'8 2.8 270 / 121001.6 29.1
2017-Jun-20 18:09N 17°24' E 083°06'25 2.7 060 / 61002.0 29.0
2017-Jun-20 09:09N 17°00' E 083°12'6 1.9 240 / 161000.6 30.1
2017-Jun-20 06:09N 17°00' E 083°18'26 2.9 230 / 231002.0 30.2
2017-Jun-19 21:09N 16°48' E 082°54'21 7.1 220 / 101001.6 29.7
2017-Jun-19 18:09N 16°30' E 082°42'156 3.7 220 / 171003.2 30.3
2017-Jun-18 00:09N 15°00' E 080°30'12 4.0 270 / 161003.6 29.8
2017-Jun-17 21:09N 14°48' E 080°30'18 6.0 250 / 121003.3 27.0
2017-Jun-17 18:09N 14°30' E 080°30'24 8.0 180 / 101004.9 30.6
2017-Jun-17 15:09N 14°06' E 080°30'6 2.0 160 / 121004.3 30.6
2017-Jun-17 12:09N 14°00' E 080°30'36 4.1 180 / 171001.8 30.7
2017-Jun-17 03:09N 13°24' E 080°36'8 2.8 240 / 121006.8 29.5
2017-Jun-17 00:09N 13°18' E 080°42'0 0.0 240 / 171005.6 29.2
2017-Jun-16 21:09N 13°18' E 080°42'19 3.2 210 / 61005.6 29.5
2017-Jun-16 15:09N 13°00' E 080°48'6 1.9 270 / 81007.1 30.5
2017-Jun-16 12:09N 13°00' E 080°42'61 5.1 170 / 141004.0 30.3
2017-Jun-16 00:09N 12°06' E 080°12'8 1.4 210 / 171005.1 29.1
2017-Jun-15 18:09N 12°00' E 080°06'21 7.2 190 / 191006.2 29.5
2017-Jun-15 15:09N 11°42' E 079°54'24 8.0 180 / 121005.1 28.7
2017-Jun-15 12:09N 11°18' E 079°54'25 7.2 170 / 101003.7 29.9
2017-Jun-15 08:39N 11°00' E 080°12'   200 / 171005.1 29.4

Dump ship's entire track history